sensor_id;sensor_type;location;lat;lon;timestamp;P1;durP1;ratioP1;P2;durP2;ratioP2
3355;SDS011;1691;52.486;13.374;2023-03-01T00:00:32;16.10;;;10.53;;
3355;SDS011;1691;52.486;13.374;2023-03-01T00:03:23;15.47;;;9.97;;
3355;SDS011;1691;52.486;13.374;2023-03-01T00:06:27;19.60;;;11.70;;
3355;SDS011;1691;52.486;13.374;2023-03-01T00:09:09;17.70;;;10.20;;
3355;SDS011;1691;52.486;13.374;2023-03-01T00:11:50;22.53;;;10.50;;
3355;SDS011;1691;52.486;13.374;2023-03-01T00:14:50;18.33;;;11.03;;
3355;SDS011;1691;52.486;13.374;2023-03-01T00:17:58;15.93;;;9.80;;
3355;SDS011;1691;52.486;13.374;2023-03-01T00:21:28;13.80;;;9.50;;
3355;SDS011;1691;52.486;13.374;2023-03-01T00:28:28;24.33;;;11.47;;
3355;SDS011;1691;52.486;13.374;2023-03-01T00:35:22;17.03;;;10.13;;
3355;SDS011;1691;52.486;13.374;2023-03-01T00:38:42;21.90;;;11.20;;
3355;SDS011;1691;52.486;13.374;2023-03-01T00:42:21;30.30;;;12.27;;
3355;SDS011;1691;52.486;13.374;2023-03-01T00:45:06;24.23;;;12.80;;
3355;SDS011;1691;52.486;13.374;2023-03-01T00:48:00;18.93;;;11.40;;
3355;SDS011;1691;52.486;13.374;2023-03-01T00:51:25;17.93;;;11.07;;
3355;SDS011;1691;52.486;13.374;2023-03-01T00:54:44;25.67;;;11.40;;
3355;SDS011;1691;52.486;13.374;2023-03-01T01:02:00;16.97;;;11.07;;
3355;SDS011;1691;52.486;13.374;2023-03-01T01:05:33;17.03;;;11.70;;
3355;SDS011;1691;52.486;13.374;2023-03-01T01:08:23;19.43;;;12.13;;
3355;SDS011;1691;52.486;13.374;2023-03-01T01:11:50;20.93;;;11.73;;
3355;SDS011;1691;52.486;13.374;2023-03-01T01:15:13;20.00;;;12.00;;
3355;SDS011;1691;52.486;13.374;2023-03-01T01:23:11;22.10;;;12.20;;
3355;SDS011;1691;52.486;13.374;2023-03-01T01:27:00;15.13;;;11.43;;
3355;SDS011;1691;52.486;13.374;2023-03-01T01:38:34;17.90;;;12.30;;
3355;SDS011;1691;52.486;13.374;2023-03-01T01:41:51;22.90;;;12.47;;
3355;SDS011;1691;52.486;13.374;2023-03-01T01:52:35;25.70;;;12.47;;
3355;SDS011;1691;52.486;13.374;2023-03-01T01:56:09;21.83;;;12.57;;
3355;SDS011;1691;52.486;13.374;2023-03-01T01:59:12;26.83;;;13.03;;
3355;SDS011;1691;52.486;13.374;2023-03-01T02:02:29;17.77;;;12.40;;
3355;SDS011;1691;52.486;13.374;2023-03-01T02:09:05;17.57;;;12.23;;
3355;SDS011;1691;52.486;13.374;2023-03-01T02:12:20;21.20;;;12.53;;
3355;SDS011;1691;52.486;13.374;2023-03-01T02:15:45;26.20;;;12.90;;
3355;SDS011;1691;52.486;13.374;2023-03-01T02:23:47;26.87;;;12.83;;
3355;SDS011;1691;52.486;13.374;2023-03-01T02:27:09;17.67;;;12.10;;
3355;SDS011;1691;52.486;13.374;2023-03-01T02:35:04;19.03;;;12.00;;
3355;SDS011;1691;52.486;13.374;2023-03-01T02:42:30;25.60;;;12.70;;
3355;SDS011;1691;52.486;13.374;2023-03-01T02:46:24;25.27;;;12.97;;
3355;SDS011;1691;52.486;13.374;2023-03-01T02:49:38;20.47;;;13.20;;
3355;SDS011;1691;52.486;13.374;2023-03-01T02:57:04;18.63;;;12.60;;
3355;SDS011;1691;52.486;13.374;2023-03-01T02:59:53;19.63;;;12.60;;
3355;SDS011;1691;52.486;13.374;2023-03-01T03:02:53;21.83;;;12.73;;
3355;SDS011;1691;52.486;13.374;2023-03-01T03:06:28;18.50;;;12.70;;
3355;SDS011;1691;52.486;13.374;2023-03-01T03:09:48;21.40;;;12.90;;
3355;SDS011;1691;52.486;13.374;2023-03-01T03:13:00;17.70;;;12.37;;
3355;SDS011;1691;52.486;13.374;2023-03-01T03:16:25;24.10;;;12.87;;
3355;SDS011;1691;52.486;13.374;2023-03-01T03:19:21;16.80;;;12.23;;
3355;SDS011;1691;52.486;13.374;2023-03-01T03:22:39;18.23;;;12.10;;
3355;SDS011;1691;52.486;13.374;2023-03-01T03:25:34;20.60;;;13.10;;
3355;SDS011;1691;52.486;13.374;2023-03-01T03:29:26;19.30;;;12.10;;
3355;SDS011;1691;52.486;13.374;2023-03-01T03:32:33;22.00;;;11.83;;
3355;SDS011;1691;52.486;13.374;2023-03-01T03:36:27;20.80;;;11.50;;
3355;SDS011;1691;52.486;13.374;2023-03-01T03:39:46;19.90;;;12.40;;
3355;SDS011;1691;52.486;13.374;2023-03-01T03:50:10;21.30;;;12.90;;
3355;SDS011;1691;52.486;13.374;2023-03-01T03:53:22;18.63;;;12.00;;
3355;SDS011;1691;52.486;13.374;2023-03-01T03:56:38;18.20;;;11.70;;
3355;SDS011;1691;52.486;13.374;2023-03-01T03:59:35;20.60;;;11.10;;
3355;SDS011;1691;52.486;13.374;2023-03-01T04:06:46;27.20;;;11.97;;
3355;SDS011;1691;52.486;13.374;2023-03-01T04:18:06;20.20;;;12.27;;
3355;SDS011;1691;52.486;13.374;2023-03-01T04:21:34;22.20;;;12.50;;
3355;SDS011;1691;52.486;13.374;2023-03-01T04:24:53;17.20;;;11.67;;
3355;SDS011;1691;52.486;13.374;2023-03-01T04:27:58;23.20;;;12.60;;
3355;SDS011;1691;52.486;13.374;2023-03-01T04:31:44;24.13;;;13.80;;
3355;SDS011;1691;52.486;13.374;2023-03-01T04:38:54;32.47;;;12.93;;
3355;SDS011;1691;52.486;13.374;2023-03-01T04:42:05;18.73;;;12.60;;
3355;SDS011;1691;52.486;13.374;2023-03-01T04:56:57;23.53;;;12.50;;
3355;SDS011;1691;52.486;13.374;2023-03-01T05:04:56;20.47;;;13.57;;
3355;SDS011;1691;52.486;13.374;2023-03-01T05:07:40;22.60;;;13.77;;
3355;SDS011;1691;52.486;13.374;2023-03-01T05:11:22;22.03;;;12.87;;
3355;SDS011;1691;52.486;13.374;2023-03-01T05:14:53;20.67;;;12.90;;
3355;SDS011;1691;52.486;13.374;2023-03-01T05:18:41;34.70;;;14.83;;
3355;SDS011;1691;52.486;13.374;2023-03-01T05:22:00;26.20;;;15.90;;
3355;SDS011;1691;52.486;13.374;2023-03-01T05:25:46;23.77;;;14.60;;
3355;SDS011;1691;52.486;13.374;2023-03-01T05:28:13;29.30;;;15.20;;
3355;SDS011;1691;52.486;13.374;2023-03-01T05:31:21;27.17;;;15.97;;
3355;SDS011;1691;52.486;13.374;2023-03-01T05:34:47;26.07;;;15.07;;
3355;SDS011;1691;52.486;13.374;2023-03-01T05:38:00;23.30;;;13.93;;
3355;SDS011;1691;52.486;13.374;2023-03-01T05:40:51;25.67;;;14.80;;
3355;SDS011;1691;52.486;13.374;2023-03-01T05:43:54;27.40;;;14.20;;
3355;SDS011;1691;52.486;13.374;2023-03-01T05:51:37;22.40;;;13.73;;
3355;SDS011;1691;52.486;13.374;2023-03-01T05:55:08;26.57;;;14.53;;
3355;SDS011;1691;52.486;13.374;2023-03-01T05:58:42;28.33;;;15.27;;
3355;SDS011;1691;52.486;13.374;2023-03-01T06:01:43;23.73;;;14.83;;
3355;SDS011;1691;52.486;13.374;2023-03-01T06:08:59;29.57;;;16.33;;
3355;SDS011;1691;52.486;13.374;2023-03-01T06:12:18;41.30;;;16.93;;
3355;SDS011;1691;52.486;13.374;2023-03-01T06:15:47;34.10;;;16.13;;
3355;SDS011;1691;52.486;13.374;2023-03-01T06:19:09;25.80;;;15.90;;
3355;SDS011;1691;52.486;13.374;2023-03-01T06:22:36;25.30;;;16.20;;
3355;SDS011;1691;52.486;13.374;2023-03-01T06:25:49;31.80;;;17.63;;
3355;SDS011;1691;52.486;13.374;2023-03-01T06:28:51;25.07;;;16.50;;
3355;SDS011;1691;52.486;13.374;2023-03-01T06:31:43;29.43;;;16.60;;
3355;SDS011;1691;52.486;13.374;2023-03-01T06:34:31;24.43;;;15.03;;
3355;SDS011;1691;52.486;13.374;2023-03-01T06:37:10;35.20;;;15.70;;
3355;SDS011;1691;52.486;13.374;2023-03-01T06:39:50;29.00;;;15.13;;
3355;SDS011;1691;52.486;13.374;2023-03-01T06:43:11;32.73;;;15.50;;
3355;SDS011;1691;52.486;13.374;2023-03-01T06:45:57;23.80;;;13.83;;
3355;SDS011;1691;52.486;13.374;2023-03-01T06:51:33;26.40;;;13.57;;
3355;SDS011;1691;52.486;13.374;2023-03-01T06:55:33;29.37;;;14.03;;
3355;SDS011;1691;52.486;13.374;2023-03-01T06:58:12;25.47;;;16.33;;
3355;SDS011;1691;52.486;13.374;2023-03-01T07:00:54;29.00;;;19.00;;
3355;SDS011;1691;52.486;13.374;2023-03-01T07:04:15;26.87;;;15.90;;
3355;SDS011;1691;52.486;13.374;2023-03-01T07:07:42;28.70;;;15.30;;
3355;SDS011;1691;52.486;13.374;2023-03-01T07:10:40;21.60;;;15.37;;
3355;SDS011;1691;52.486;13.374;2023-03-01T07:13:47;24.00;;;16.73;;
3355;SDS011;1691;52.486;13.374;2023-03-01T07:16:35;28.03;;;16.97;;
3355;SDS011;1691;52.486;13.374;2023-03-01T07:19:53;35.37;;;17.60;;
3355;SDS011;1691;52.486;13.374;2023-03-01T07:22:30;37.00;;;17.57;;
3355;SDS011;1691;52.486;13.374;2023-03-01T07:25:39;37.33;;;18.10;;
3355;SDS011;1691;52.486;13.374;2023-03-01T07:28:35;29.47;;;17.60;;
3355;SDS011;1691;52.486;13.374;2023-03-01T07:31:44;29.43;;;16.93;;
3355;SDS011;1691;52.486;13.374;2023-03-01T07:34:39;23.50;;;16.93;;
3355;SDS011;1691;52.486;13.374;2023-03-01T07:37:27;29.40;;;17.70;;
3355;SDS011;1691;52.486;13.374;2023-03-01T07:40:32;24.00;;;17.63;;
3355;SDS011;1691;52.486;13.374;2023-03-01T07:47:39;43.80;;;24.43;;
3355;SDS011;1691;52.486;13.374;2023-03-01T07:50:27;24.87;;;15.07;;
3355;SDS011;1691;52.486;13.374;2023-03-01T07:53:15;41.23;;;24.50;;
3355;SDS011;1691;52.486;13.374;2023-03-01T07:56:34;15.97;;;13.67;;
3355;SDS011;1691;52.486;13.374;2023-03-01T07:59:02;20.80;;;12.77;;
3355;SDS011;1691;52.486;13.374;2023-03-01T08:01:37;21.03;;;12.87;;
3355;SDS011;1691;52.486;13.374;2023-03-01T08:04:20;23.07;;;14.13;;
3355;SDS011;1691;52.486;13.374;2023-03-01T08:07:04;19.60;;;12.33;;
3355;SDS011;1691;52.486;13.374;2023-03-01T08:09:52;19.67;;;13.73;;
3355;SDS011;1691;52.486;13.374;2023-03-01T08:13:01;15.33;;;11.80;;
3355;SDS011;1691;52.486;13.374;2023-03-01T08:15:54;21.97;;;11.87;;
3355;SDS011;1691;52.486;13.374;2023-03-01T08:22:44;13.27;;;10.70;;
3355;SDS011;1691;52.486;13.374;2023-03-01T08:25:24;15.10;;;10.23;;
3355;SDS011;1691;52.486;13.374;2023-03-01T08:28:05;14.73;;;11.47;;
3355;SDS011;1691;52.486;13.374;2023-03-01T08:30:54;19.00;;;11.30;;
3355;SDS011;1691;52.486;13.374;2023-03-01T08:41:12;10.13;;;9.23;;
3355;SDS011;1691;52.486;13.374;2023-03-01T08:43:58;8.87;;;7.57;;
3355;SDS011;1691;52.486;13.374;2023-03-01T08:50:14;6.93;;;6.33;;
3355;SDS011;1691;52.486;13.374;2023-03-01T08:57:44;7.00;;;6.43;;
3355;SDS011;1691;52.486;13.374;2023-03-01T09:05:17;6.10;;;5.53;;
3355;SDS011;1691;52.486;13.374;2023-03-01T09:08:07;9.50;;;6.30;;
3355;SDS011;1691;52.486;13.374;2023-03-01T09:11:22;14.40;;;11.20;;
3355;SDS011;1691;52.486;13.374;2023-03-01T09:14:18;11.57;;;8.30;;
3355;SDS011;1691;52.486;13.374;2023-03-01T09:17:24;10.53;;;8.03;;
3355;SDS011;1691;52.486;13.374;2023-03-01T09:20:35;10.20;;;9.13;;
3355;SDS011;1691;52.486;13.374;2023-03-01T09:23:22;16.03;;;14.13;;
3355;SDS011;1691;52.486;13.374;2023-03-01T09:33:48;7.50;;;6.87;;
3355;SDS011;1691;52.486;13.374;2023-03-01T09:37:24;10.97;;;7.90;;
3355;SDS011;1691;52.486;13.374;2023-03-01T09:40:30;7.80;;;7.00;;
3355;SDS011;1691;52.486;13.374;2023-03-01T09:43:56;5.83;;;5.33;;
3355;SDS011;1691;52.486;13.374;2023-03-01T09:46:55;9.43;;;5.00;;
3355;SDS011;1691;52.486;13.374;2023-03-01T09:50:04;9.43;;;8.50;;
3355;SDS011;1691;52.486;13.374;2023-03-01T09:53:49;10.73;;;7.60;;
3355;SDS011;1691;52.486;13.374;2023-03-01T09:56:36;6.50;;;6.00;;
3355;SDS011;1691;52.486;13.374;2023-03-01T10:00:29;10.70;;;7.13;;
3355;SDS011;1691;52.486;13.374;2023-03-01T10:03:51;14.80;;;7.07;;
3355;SDS011;1691;52.486;13.374;2023-03-01T10:11:19;20.07;;;10.40;;
3355;SDS011;1691;52.486;13.374;2023-03-01T10:18:44;11.03;;;6.13;;
3355;SDS011;1691;52.486;13.374;2023-03-01T10:21:41;8.97;;;6.80;;
3355;SDS011;1691;52.486;13.374;2023-03-01T10:24:30;7.00;;;5.97;;
3355;SDS011;1691;52.486;13.374;2023-03-01T10:30:55;9.70;;;7.43;;
3355;SDS011;1691;52.486;13.374;2023-03-01T10:37:27;20.20;;;6.87;;
3355;SDS011;1691;52.486;13.374;2023-03-01T10:48:13;10.20;;;7.30;;
3355;SDS011;1691;52.486;13.374;2023-03-01T10:54:28;7.63;;;6.93;;
3355;SDS011;1691;52.486;13.374;2023-03-01T11:07:57;10.00;;;6.30;;
3355;SDS011;1691;52.486;13.374;2023-03-01T11:11:04;9.90;;;7.63;;
3355;SDS011;1691;52.486;13.374;2023-03-01T11:17:33;6.37;;;5.17;;
3355;SDS011;1691;52.486;13.374;2023-03-01T11:20:33;14.40;;;4.70;;
3355;SDS011;1691;52.486;13.374;2023-03-01T11:23:15;6.07;;;4.60;;
3355;SDS011;1691;52.486;13.374;2023-03-01T11:25:53;5.57;;;5.00;;
3355;SDS011;1691;52.486;13.374;2023-03-01T11:28:42;5.33;;;4.90;;
3355;SDS011;1691;52.486;13.374;2023-03-01T11:31:21;8.50;;;4.30;;
3355;SDS011;1691;52.486;13.374;2023-03-01T11:34:05;11.53;;;4.70;;
3355;SDS011;1691;52.486;13.374;2023-03-01T11:36:50;8.93;;;5.50;;
3355;SDS011;1691;52.486;13.374;2023-03-01T11:39:51;7.67;;;5.80;;
3355;SDS011;1691;52.486;13.374;2023-03-01T11:55:55;17.87;;;4.67;;
3355;SDS011;1691;52.486;13.374;2023-03-01T12:30:14;9.93;;;3.30;;
3355;SDS011;1691;52.486;13.374;2023-03-01T12:35:22;4.70;;;3.53;;
3355;SDS011;1691;52.486;13.374;2023-03-01T12:41:32;4.00;;;3.70;;
3355;SDS011;1691;52.486;13.374;2023-03-01T12:45:00;4.33;;;3.93;;
3355;SDS011;1691;52.486;13.374;2023-03-01T13:00:46;4.50;;;4.10;;
3355;SDS011;1691;52.486;13.374;2023-03-01T13:11:01;4.50;;;3.90;;
3355;SDS011;1691;52.486;13.374;2023-03-01T13:17:50;3.40;;;3.20;;
3355;SDS011;1691;52.486;13.374;2023-03-01T13:21:28;3.40;;;3.20;;
3355;SDS011;1691;52.486;13.374;2023-03-01T13:24:41;3.20;;;3.00;;
3355;SDS011;1691;52.486;13.374;2023-03-01T13:42:00;4.17;;;2.80;;
3355;SDS011;1691;52.486;13.374;2023-03-01T13:49:22;3.97;;;3.67;;
3355;SDS011;1691;52.486;13.374;2023-03-01T13:55:42;9.57;;;3.30;;
3355;SDS011;1691;52.486;13.374;2023-03-01T13:58:43;5.37;;;3.57;;
3355;SDS011;1691;52.486;13.374;2023-03-01T14:01:33;7.33;;;3.53;;
3355;SDS011;1691;52.486;13.374;2023-03-01T14:05:01;3.40;;;3.20;;
3355;SDS011;1691;52.486;13.374;2023-03-01T14:07:53;5.30;;;3.00;;
3355;SDS011;1691;52.486;13.374;2023-03-01T14:20:53;2.47;;;2.27;;
3355;SDS011;1691;52.486;13.374;2023-03-01T14:23:53;3.67;;;3.27;;
3355;SDS011;1691;52.486;13.374;2023-03-01T14:26:33;2.50;;;2.40;;
3355;SDS011;1691;52.486;13.374;2023-03-01T14:29:29;4.57;;;3.17;;
3355;SDS011;1691;52.486;13.374;2023-03-01T14:32:21;22.43;;;2.53;;
3355;SDS011;1691;52.486;13.374;2023-03-01T14:35:36;3.20;;;2.90;;
3355;SDS011;1691;52.486;13.374;2023-03-01T14:38:45;3.77;;;3.30;;
3355;SDS011;1691;52.486;13.374;2023-03-01T14:41:47;3.63;;;3.43;;
3355;SDS011;1691;52.486;13.374;2023-03-01T14:49:29;2.80;;;2.60;;
3355;SDS011;1691;52.486;13.374;2023-03-01T14:52:06;5.23;;;2.50;;
3355;SDS011;1691;52.486;13.374;2023-03-01T14:55:42;3.80;;;3.47;;
3355;SDS011;1691;52.486;13.374;2023-03-01T14:58:33;5.13;;;3.17;;
3355;SDS011;1691;52.486;13.374;2023-03-01T15:01:31;5.67;;;3.70;;
3355;SDS011;1691;52.486;13.374;2023-03-01T15:04:50;2.90;;;2.80;;
3355;SDS011;1691;52.486;13.374;2023-03-01T15:07:48;2.73;;;2.63;;
3355;SDS011;1691;52.486;13.374;2023-03-01T15:11:05;5.63;;;2.90;;
3355;SDS011;1691;52.486;13.374;2023-03-01T15:17:42;3.13;;;2.87;;
3355;SDS011;1691;52.486;13.374;2023-03-01T15:21:36;2.30;;;2.10;;
3355;SDS011;1691;52.486;13.374;2023-03-01T15:26:50;7.13;;;4.50;;
3355;SDS011;1691;52.486;13.374;2023-03-01T15:29:22;3.13;;;2.93;;
3355;SDS011;1691;52.486;13.374;2023-03-01T15:32:04;3.50;;;3.40;;
3355;SDS011;1691;52.486;13.374;2023-03-01T15:34:57;5.13;;;3.07;;
3355;SDS011;1691;52.486;13.374;2023-03-01T15:40:17;3.93;;;3.47;;
3355;SDS011;1691;52.486;13.374;2023-03-01T15:42:58;6.20;;;3.33;;
3355;SDS011;1691;52.486;13.374;2023-03-01T15:45:31;3.53;;;3.00;;
3355;SDS011;1691;52.486;13.374;2023-03-01T15:48:05;3.93;;;3.00;;
3355;SDS011;1691;52.486;13.374;2023-03-01T15:50:53;4.83;;;2.43;;
3355;SDS011;1691;52.486;13.374;2023-03-01T15:53:21;9.17;;;3.70;;
3355;SDS011;1691;52.486;13.374;2023-03-01T15:55:48;6.90;;;3.17;;
3355;SDS011;1691;52.486;13.374;2023-03-01T15:58:20;5.17;;;3.83;;
3355;SDS011;1691;52.486;13.374;2023-03-01T16:00:50;4.27;;;3.87;;
3355;SDS011;1691;52.486;13.374;2023-03-01T16:03:29;4.33;;;4.10;;
3355;SDS011;1691;52.486;13.374;2023-03-01T16:05:56;7.87;;;7.20;;
3355;SDS011;1691;52.486;13.374;2023-03-01T16:08:23;8.90;;;8.00;;
3355;SDS011;1691;52.486;13.374;2023-03-01T16:10:50;3.90;;;3.70;;
3355;SDS011;1691;52.486;13.374;2023-03-01T16:13:17;3.63;;;3.10;;
3355;SDS011;1691;52.486;13.374;2023-03-01T16:15:45;3.00;;;2.77;;
3355;SDS011;1691;52.486;13.374;2023-03-01T16:18:12;3.33;;;3.17;;
3355;SDS011;1691;52.486;13.374;2023-03-01T16:20:39;3.73;;;3.17;;
3355;SDS011;1691;52.486;13.374;2023-03-01T16:23:07;3.83;;;2.70;;
3355;SDS011;1691;52.486;13.374;2023-03-01T16:25:35;11.90;;;5.90;;
3355;SDS011;1691;52.486;13.374;2023-03-01T16:28:02;3.93;;;3.70;;
3355;SDS011;1691;52.486;13.374;2023-03-01T16:30:35;4.63;;;3.40;;
3355;SDS011;1691;52.486;13.374;2023-03-01T16:33:03;7.60;;;6.27;;
3355;SDS011;1691;52.486;13.374;2023-03-01T16:35:50;11.43;;;6.10;;
3355;SDS011;1691;52.486;13.374;2023-03-01T16:38:17;4.93;;;4.10;;
3355;SDS011;1691;52.486;13.374;2023-03-01T16:40:46;5.40;;;3.70;;
3355;SDS011;1691;52.486;13.374;2023-03-01T16:43:15;4.10;;;3.80;;
3355;SDS011;1691;52.486;13.374;2023-03-01T16:45:42;4.07;;;3.77;;
3355;SDS011;1691;52.486;13.374;2023-03-01T16:48:11;7.20;;;4.73;;
3355;SDS011;1691;52.486;13.374;2023-03-01T16:50:39;4.70;;;3.40;;
3355;SDS011;1691;52.486;13.374;2023-03-01T16:53:07;5.20;;;4.17;;
3355;SDS011;1691;52.486;13.374;2023-03-01T16:55:34;8.93;;;4.43;;
3355;SDS011;1691;52.486;13.374;2023-03-01T16:58:01;4.47;;;4.17;;
3355;SDS011;1691;52.486;13.374;2023-03-01T17:00:28;12.53;;;4.53;;
3355;SDS011;1691;52.486;13.374;2023-03-01T17:02:55;5.23;;;4.57;;
3355;SDS011;1691;52.486;13.374;2023-03-01T17:05:22;5.07;;;4.77;;
3355;SDS011;1691;52.486;13.374;2023-03-01T17:07:50;4.80;;;4.27;;
3355;SDS011;1691;52.486;13.374;2023-03-01T17:10:17;10.37;;;6.20;;
3355;SDS011;1691;52.486;13.374;2023-03-01T17:12:47;19.53;;;5.53;;
3355;SDS011;1691;52.486;13.374;2023-03-01T17:15:15;6.20;;;5.60;;
3355;SDS011;1691;52.486;13.374;2023-03-01T17:17:43;7.47;;;6.80;;
3355;SDS011;1691;52.486;13.374;2023-03-01T17:20:10;8.07;;;5.23;;
3355;SDS011;1691;52.486;13.374;2023-03-01T17:22:37;11.10;;;6.10;;
3355;SDS011;1691;52.486;13.374;2023-03-01T17:25:06;10.23;;;5.27;;
3355;SDS011;1691;52.486;13.374;2023-03-01T17:27:36;12.30;;;7.17;;
3355;SDS011;1691;52.486;13.374;2023-03-01T17:30:04;10.17;;;5.93;;
3355;SDS011;1691;52.486;13.374;2023-03-01T17:32:36;18.43;;;6.53;;
3355;SDS011;1691;52.486;13.374;2023-03-01T17:35:04;11.33;;;5.60;;
3355;SDS011;1691;52.486;13.374;2023-03-01T17:37:33;6.77;;;5.00;;
3355;SDS011;1691;52.486;13.374;2023-03-01T17:40:02;6.90;;;5.27;;
3355;SDS011;1691;52.486;13.374;2023-03-01T17:42:29;6.43;;;4.43;;
3355;SDS011;1691;52.486;13.374;2023-03-01T17:44:56;5.87;;;5.47;;
3355;SDS011;1691;52.486;13.374;2023-03-01T17:47:23;5.27;;;4.50;;
3355;SDS011;1691;52.486;13.374;2023-03-01T17:49:50;8.17;;;6.03;;
3355;SDS011;1691;52.486;13.374;2023-03-01T17:52:17;5.30;;;4.80;;
3355;SDS011;1691;52.486;13.374;2023-03-01T17:54:48;12.23;;;7.67;;
3355;SDS011;1691;52.486;13.374;2023-03-01T17:57:16;8.33;;;6.87;;
3355;SDS011;1691;52.486;13.374;2023-03-01T17:59:43;11.53;;;6.50;;
3355;SDS011;1691;52.486;13.374;2023-03-01T18:02:13;10.67;;;7.00;;
3355;SDS011;1691;52.486;13.374;2023-03-01T18:04:40;9.80;;;6.20;;
3355;SDS011;1691;52.486;13.374;2023-03-01T18:07:07;9.33;;;6.83;;
3355;SDS011;1691;52.486;13.374;2023-03-01T18:09:34;6.37;;;5.50;;
3355;SDS011;1691;52.486;13.374;2023-03-01T18:12:01;10.70;;;7.07;;
3355;SDS011;1691;52.486;13.374;2023-03-01T18:14:28;17.80;;;7.07;;
3355;SDS011;1691;52.486;13.374;2023-03-01T18:16:59;18.93;;;11.00;;
3355;SDS011;1691;52.486;13.374;2023-03-01T18:19:31;18.20;;;10.50;;
3355;SDS011;1691;52.486;13.374;2023-03-01T18:21:59;21.00;;;11.30;;
3355;SDS011;1691;52.486;13.374;2023-03-01T18:24:26;9.17;;;7.70;;
3355;SDS011;1691;52.486;13.374;2023-03-01T18:26:53;18.20;;;8.87;;
3355;SDS011;1691;52.486;13.374;2023-03-01T18:29:20;15.60;;;7.23;;
3355;SDS011;1691;52.486;13.374;2023-03-01T18:31:46;9.53;;;7.27;;
3355;SDS011;1691;52.486;13.374;2023-03-01T18:34:14;16.60;;;8.53;;
3355;SDS011;1691;52.486;13.374;2023-03-01T18:36:41;16.93;;;8.60;;
3355;SDS011;1691;52.486;13.374;2023-03-01T18:39:17;7.60;;;6.80;;
3355;SDS011;1691;52.486;13.374;2023-03-01T18:41:45;10.80;;;7.77;;
3355;SDS011;1691;52.486;13.374;2023-03-01T18:44:12;21.37;;;10.77;;
3355;SDS011;1691;52.486;13.374;2023-03-01T18:46:39;33.73;;;8.60;;
3355;SDS011;1691;52.486;13.374;2023-03-01T18:49:06;12.60;;;8.90;;
3355;SDS011;1691;52.486;13.374;2023-03-01T18:51:34;19.20;;;7.60;;
3355;SDS011;1691;52.486;13.374;2023-03-01T18:54:01;18.80;;;8.90;;
3355;SDS011;1691;52.486;13.374;2023-03-01T18:56:28;14.03;;;8.20;;
3355;SDS011;1691;52.486;13.374;2023-03-01T18:58:57;17.53;;;10.33;;
3355;SDS011;1691;52.486;13.374;2023-03-01T19:01:26;17.10;;;10.13;;
3355;SDS011;1691;52.486;13.374;2023-03-01T19:03:56;29.07;;;10.70;;
3355;SDS011;1691;52.486;13.374;2023-03-01T19:06:26;20.00;;;10.77;;
3355;SDS011;1691;52.486;13.374;2023-03-01T19:08:57;19.70;;;12.00;;
3355;SDS011;1691;52.486;13.374;2023-03-01T19:11:24;20.23;;;9.73;;
3355;SDS011;1691;52.486;13.374;2023-03-01T19:13:56;29.80;;;9.87;;
3355;SDS011;1691;52.486;13.374;2023-03-01T19:16:25;21.47;;;10.40;;
3355;SDS011;1691;52.486;13.374;2023-03-01T19:18:56;24.90;;;10.60;;
3355;SDS011;1691;52.486;13.374;2023-03-01T19:21:26;15.87;;;8.90;;
3355;SDS011;1691;52.486;13.374;2023-03-01T19:23:56;26.33;;;9.60;;
3355;SDS011;1691;52.486;13.374;2023-03-01T19:26:25;17.07;;;9.67;;
3355;SDS011;1691;52.486;13.374;2023-03-01T19:28:53;19.00;;;10.73;;
3355;SDS011;1691;52.486;13.374;2023-03-01T19:31:22;107.43;;;42.43;;
3355;SDS011;1691;52.486;13.374;2023-03-01T19:33:52;24.10;;;14.07;;
3355;SDS011;1691;52.486;13.374;2023-03-01T19:36:36;45.40;;;21.73;;
3355;SDS011;1691;52.486;13.374;2023-03-01T19:39:07;30.90;;;12.40;;
3355;SDS011;1691;52.486;13.374;2023-03-01T19:41:36;27.07;;;10.80;;
3355;SDS011;1691;52.486;13.374;2023-03-01T19:44:03;17.30;;;11.10;;
3355;SDS011;1691;52.486;13.374;2023-03-01T19:46:31;37.90;;;11.87;;
3355;SDS011;1691;52.486;13.374;2023-03-01T19:48:59;25.07;;;11.60;;
3355;SDS011;1691;52.486;13.374;2023-03-01T19:51:28;14.30;;;10.20;;
3355;SDS011;1691;52.486;13.374;2023-03-01T19:53:58;25.07;;;10.03;;
3355;SDS011;1691;52.486;13.374;2023-03-01T19:56:25;17.77;;;9.63;;
3355;SDS011;1691;52.486;13.374;2023-03-01T19:58:52;25.70;;;15.20;;
3355;SDS011;1691;52.486;13.374;2023-03-01T20:01:25;21.90;;;11.67;;
3355;SDS011;1691;52.486;13.374;2023-03-01T20:03:55;17.97;;;11.90;;
3355;SDS011;1691;52.486;13.374;2023-03-01T20:06:22;14.43;;;10.07;;
3355;SDS011;1691;52.486;13.374;2023-03-01T20:08:50;19.47;;;10.70;;
3355;SDS011;1691;52.486;13.374;2023-03-01T20:11:18;29.17;;;12.30;;
3355;SDS011;1691;52.486;13.374;2023-03-01T20:13:45;23.00;;;11.93;;
3355;SDS011;1691;52.486;13.374;2023-03-01T20:16:16;42.47;;;11.23;;
3355;SDS011;1691;52.486;13.374;2023-03-01T20:18:45;29.23;;;12.20;;
3355;SDS011;1691;52.486;13.374;2023-03-01T20:21:13;33.90;;;12.33;;
3355;SDS011;1691;52.486;13.374;2023-03-01T20:23:49;38.33;;;13.23;;
3355;SDS011;1691;52.486;13.374;2023-03-01T20:26:17;17.23;;;10.90;;
3355;SDS011;1691;52.486;13.374;2023-03-01T20:28:46;22.23;;;10.90;;
3355;SDS011;1691;52.486;13.374;2023-03-01T20:31:19;13.30;;;9.03;;
3355;SDS011;1691;52.486;13.374;2023-03-01T20:33:49;12.53;;;6.40;;
3355;SDS011;1691;52.486;13.374;2023-03-01T20:36:16;19.23;;;7.17;;
3355;SDS011;1691;52.486;13.374;2023-03-01T20:38:42;24.17;;;13.20;;
3355;SDS011;1691;52.486;13.374;2023-03-01T20:41:10;17.90;;;10.83;;
3355;SDS011;1691;52.486;13.374;2023-03-01T20:43:39;15.50;;;10.00;;
3355;SDS011;1691;52.486;13.374;2023-03-01T20:46:09;28.60;;;13.40;;
3355;SDS011;1691;52.486;13.374;2023-03-01T20:48:39;27.33;;;11.70;;
3355;SDS011;1691;52.486;13.374;2023-03-01T20:51:08;18.30;;;11.50;;
3355;SDS011;1691;52.486;13.374;2023-03-01T20:53:38;43.87;;;15.43;;
3355;SDS011;1691;52.486;13.374;2023-03-01T20:56:06;28.97;;;15.83;;
3355;SDS011;1691;52.486;13.374;2023-03-01T20:58:39;24.27;;;14.00;;
3355;SDS011;1691;52.486;13.374;2023-03-01T21:01:08;25.57;;;13.40;;
3355;SDS011;1691;52.486;13.374;2023-03-01T21:03:38;32.70;;;14.73;;
3355;SDS011;1691;52.486;13.374;2023-03-01T21:06:05;30.93;;;15.60;;
3355;SDS011;1691;52.486;13.374;2023-03-01T21:08:32;23.20;;;12.90;;
3355;SDS011;1691;52.486;13.374;2023-03-01T21:11:01;22.67;;;12.43;;
3355;SDS011;1691;52.486;13.374;2023-03-01T21:13:31;22.30;;;11.20;;
3355;SDS011;1691;52.486;13.374;2023-03-01T21:18:33;24.10;;;11.70;;
3355;SDS011;1691;52.486;13.374;2023-03-01T21:21:03;13.80;;;10.03;;
3355;SDS011;1691;52.486;13.374;2023-03-01T21:23:45;42.87;;;17.13;;
3355;SDS011;1691;52.486;13.374;2023-03-01T21:26:14;24.93;;;12.90;;
3355;SDS011;1691;52.486;13.374;2023-03-01T21:28:47;21.80;;;11.80;;
3355;SDS011;1691;52.486;13.374;2023-03-01T21:31:20;23.03;;;11.13;;
3355;SDS011;1691;52.486;13.374;2023-03-01T21:33:51;89.37;;;40.03;;
3355;SDS011;1691;52.486;13.374;2023-03-01T21:36:21;45.27;;;21.10;;
3355;SDS011;1691;52.486;13.374;2023-03-01T21:38:51;32.63;;;18.67;;
3355;SDS011;1691;52.486;13.374;2023-03-01T21:41:19;24.73;;;15.10;;
3355;SDS011;1691;52.486;13.374;2023-03-01T21:43:52;23.07;;;12.10;;
3355;SDS011;1691;52.486;13.374;2023-03-01T21:46:23;17.67;;;10.17;;
3355;SDS011;1691;52.486;13.374;2023-03-01T21:48:51;27.43;;;12.77;;
3355;SDS011;1691;52.486;13.374;2023-03-01T21:51:20;42.30;;;14.43;;
3355;SDS011;1691;52.486;13.374;2023-03-01T21:53:51;60.23;;;28.23;;
3355;SDS011;1691;52.486;13.374;2023-03-01T21:56:21;56.03;;;20.50;;
3355;SDS011;1691;52.486;13.374;2023-03-01T21:58:52;33.77;;;16.10;;
3355;SDS011;1691;52.486;13.374;2023-03-01T22:01:20;18.63;;;11.40;;
3355;SDS011;1691;52.486;13.374;2023-03-01T22:03:51;26.67;;;14.10;;
3355;SDS011;1691;52.486;13.374;2023-03-01T22:06:23;30.43;;;14.83;;